sensor_id;sensor_type;location;lat;lon;timestamp;pressure;altitude;pressure_sealevel;temperature;humidity
6952;BME280;3515;50.138;8.502;2022-07-12T00:01:31;102460;;;15.0;81.3
6952;BME280;3515;50.138;8.502;2022-07-12T00:03:57;102490;;;15.0;81.3
6952;BME280;3515;50.138;8.502;2022-07-12T00:06:22;102490;;;14.9;81.3
6952;BME280;3515;50.138;8.502;2022-07-12T00:08:47;102500;;;14.9;81.3
6952;BME280;3515;50.138;8.502;2022-07-12T00:11:12;102470;;;14.9;81.3
6952;BME280;3515;50.138;8.502;2022-07-12T00:13:38;102500;;;14.9;81.8
6952;BME280;3515;50.138;8.502;2022-07-12T00:16:03;102490;;;14.9;81.8
6952;BME280;3515;50.138;8.502;2022-07-12T00:18:28;102480;;;14.8;81.8
6952;BME280;3515;50.138;8.502;2022-07-12T00:20:53;102500;;;14.8;81.8
6952;BME280;3515;50.138;8.502;2022-07-12T00:23:19;102490;;;14.8;82.3
6952;BME280;3515;50.138;8.502;2022-07-12T00:25:49;102490;;;14.9;81.9
6952;BME280;3515;50.138;8.502;2022-07-12T00:28:14;102500;;;14.8;81.9
6952;BME280;3515;50.138;8.502;2022-07-12T00:30:39;102480;;;14.8;81.9
6952;BME280;3515;50.138;8.502;2022-07-12T00:33:05;102490;;;14.8;81.9
6952;BME280;3515;50.138;8.502;2022-07-12T00:35:30;102480;;;14.8;81.9
6952;BME280;3515;50.138;8.502;2022-07-12T00:37:55;102490;;;14.8;81.9
6952;BME280;3515;50.138;8.502;2022-07-12T00:40:21;102510;;;14.8;81.9
6952;BME280;3515;50.138;8.502;2022-07-12T00:42:46;102480;;;14.8;81.9
6952;BME280;3515;50.138;8.502;2022-07-12T00:45:11;102490;;;14.8;81.9
6952;BME280;3515;50.138;8.502;2022-07-12T00:47:37;102470;;;14.8;81.9
6952;BME280;3515;50.138;8.502;2022-07-12T00:50:03;102470;;;14.8;81.9
6952;BME280;3515;50.138;8.502;2022-07-12T00:52:27;102450;;;14.8;81.9
6952;BME280;3515;50.138;8.502;2022-07-12T00:54:52;102470;;;14.8;82.9
6952;BME280;3515;50.138;8.502;2022-07-12T00:57:17;102470;;;14.8;82.9
6952;BME280;3515;50.138;8.502;2022-07-12T00:59:42;102480;;;14.8;82.9
6952;BME280;3515;50.138;8.502;2022-07-12T01:02:08;102460;;;14.8;82.4
6952;BME280;3515;50.138;8.502;2022-07-12T01:04:33;102450;;;14.8;82.9
6952;BME280;3515;50.138;8.502;2022-07-12T01:06:58;102490;;;14.8;82.9
6952;BME280;3515;50.138;8.502;2022-07-12T01:09:24;102490;;;14.8;82.9
6952;BME280;3515;50.138;8.502;2022-07-12T01:11:49;102480;;;14.8;82.9
6952;BME280;3515;50.138;8.502;2022-07-12T01:14:14;102460;;;14.6;82.9
6952;BME280;3515;50.138;8.502;2022-07-12T01:16:39;102480;;;14.6;82.9
6952;BME280;3515;50.138;8.502;2022-07-12T01:19:05;102450;;;14.7;82.9
6952;BME280;3515;50.138;8.502;2022-07-12T01:21:31;102470;;;14.6;82.9
6952;BME280;3515;50.138;8.502;2022-07-12T01:23:55;102470;;;14.6;82.9
6952;BME280;3515;50.138;8.502;2022-07-12T01:26:20;102450;;;14.6;82.9
6952;BME280;3515;50.138;8.502;2022-07-12T01:28:46;102450;;;14.6;82.9
6952;BME280;3515;50.138;8.502;2022-07-12T01:31:11;102450;;;14.6;82.9
6952;BME280;3515;50.138;8.502;2022-07-12T01:33:36;102450;;;14.5;83.4
6952;BME280;3515;50.138;8.502;2022-07-12T01:36:02;102450;;;14.4;83.9
6952;BME280;3515;50.138;8.502;2022-07-12T01:38:27;102450;;;14.4;83.8
6952;BME280;3515;50.138;8.502;2022-07-12T01:40:52;102450;;;14.4;83.9
6952;BME280;3515;50.138;8.502;2022-07-12T01:43:17;102460;;;14.4;83.9
6952;BME280;3515;50.138;8.502;2022-07-12T01:45:42;102460;;;14.4;83.9
6952;BME280;3515;50.138;8.502;2022-07-12T01:48:08;102440;;;14.4;84.3
6952;BME280;3515;50.138;8.502;2022-07-12T01:50:33;102460;;;14.3;84.3
6952;BME280;3515;50.138;8.502;2022-07-12T01:52:58;102460;;;14.3;84.3
6952;BME280;3515;50.138;8.502;2022-07-12T01:55:23;102440;;;14.3;84.4
6952;BME280;3515;50.138;8.502;2022-07-12T01:57:49;102480;;;14.3;84.9
6952;BME280;3515;50.138;8.502;2022-07-12T02:00:14;102410;;;14.2;84.9
6952;BME280;3515;50.138;8.502;2022-07-12T02:02:39;102460;;;14.2;84.9
6952;BME280;3515;50.138;8.502;2022-07-12T02:05:05;102460;;;14.2;84.9
6952;BME280;3515;50.138;8.502;2022-07-12T02:07:30;102460;;;14.2;84.8
6952;BME280;3515;50.138;8.502;2022-07-12T02:09:55;102440;;;14.2;84.8
6952;BME280;3515;50.138;8.502;2022-07-12T02:12:20;102440;;;14.1;84.9
6952;BME280;3515;50.138;8.502;2022-07-12T02:14:46;102450;;;14.1;84.9
6952;BME280;3515;50.138;8.502;2022-07-12T02:17:11;102410;;;14.1;84.9
6952;BME280;3515;50.138;8.502;2022-07-12T02:19:36;102440;;;14.1;84.9
6952;BME280;3515;50.138;8.502;2022-07-12T02:22:01;102450;;;14.1;84.8
6952;BME280;3515;50.138;8.502;2022-07-12T02:24:27;102450;;;14.1;85.3
6952;BME280;3515;50.138;8.502;2022-07-12T02:26:52;102440;;;14.1;85.3
6952;BME280;3515;50.138;8.502;2022-07-12T02:29:17;102450;;;14.0;85.3
6952;BME280;3515;50.138;8.502;2022-07-12T02:31:42;102440;;;14.0;85.3
6952;BME280;3515;50.138;8.502;2022-07-12T02:34:08;102460;;;14.0;85.3
6952;BME280;3515;50.138;8.502;2022-07-12T02:36:33;102470;;;14.0;85.3
6952;BME280;3515;50.138;8.502;2022-07-12T02:38:58;102460;;;13.9;85.3
6952;BME280;3515;50.138;8.502;2022-07-12T02:41:23;102470;;;13.9;85.3
6952;BME280;3515;50.138;8.502;2022-07-12T02:43:49;102460;;;13.9;85.3
6952;BME280;3515;50.138;8.502;2022-07-12T02:46:14;102450;;;13.9;85.3
6952;BME280;3515;50.138;8.502;2022-07-12T02:48:39;102470;;;13.8;85.3
6952;BME280;3515;50.138;8.502;2022-07-12T02:51:05;102480;;;13.9;85.3
6952;BME280;3515;50.138;8.502;2022-07-12T02:53:30;102460;;;13.9;85.3
6952;BME280;3515;50.138;8.502;2022-07-12T02:55:55;102470;;;13.8;85.3
6952;BME280;3515;50.138;8.502;2022-07-12T02:58:20;102470;;;13.8;85.3
6952;BME280;3515;50.138;8.502;2022-07-12T03:00:45;102450;;;13.8;85.8
6952;BME280;3515;50.138;8.502;2022-07-12T03:03:11;102480;;;13.7;85.8
6952;BME280;3515;50.138;8.502;2022-07-12T03:05:36;102470;;;13.7;85.8
6952;BME280;3515;50.138;8.502;2022-07-12T03:08:01;102450;;;13.8;85.9
6952;BME280;3515;50.138;8.502;2022-07-12T03:10:26;102470;;;13.8;85.9
6952;BME280;3515;50.138;8.502;2022-07-12T03:12:52;102500;;;13.8;85.9
6952;BME280;3515;50.138;8.502;2022-07-12T03:15:17;102490;;;13.8;85.9
6952;BME280;3515;50.138;8.502;2022-07-12T03:17:42;102500;;;13.8;85.9
6952;BME280;3515;50.138;8.502;2022-07-12T03:20:08;102490;;;13.8;85.9
6952;BME280;3515;50.138;8.502;2022-07-12T03:22:33;102470;;;13.8;85.9
6952;BME280;3515;50.138;8.502;2022-07-12T03:24:58;102490;;;13.6;85.9
6952;BME280;3515;50.138;8.502;2022-07-12T03:27:23;102500;;;13.6;85.9
6952;BME280;3515;50.138;8.502;2022-07-12T03:29:48;102490;;;13.6;85.9
6952;BME280;3515;50.138;8.502;2022-07-12T03:32:14;102500;;;13.6;85.9
6952;BME280;3515;50.138;8.502;2022-07-12T03:34:39;102500;;;13.6;85.9
6952;BME280;3515;50.138;8.502;2022-07-12T03:37:04;102530;;;13.6;85.9
6952;BME280;3515;50.138;8.502;2022-07-12T03:39:29;102500;;;13.6;85.9
6952;BME280;3515;50.138;8.502;2022-07-12T03:41:55;102500;;;13.6;85.9
6952;BME280;3515;50.138;8.502;2022-07-12T03:44:20;102500;;;13.6;85.9
6952;BME280;3515;50.138;8.502;2022-07-12T03:46:45;102520;;;13.6;85.9
6952;BME280;3515;50.138;8.502;2022-07-12T03:49:10;102520;;;13.6;85.4
6952;BME280;3515;50.138;8.502;2022-07-12T03:51:36;102500;;;13.7;85.4
6952;BME280;3515;50.138;8.502;2022-07-12T03:54:01;102480;;;13.7;85.4
6952;BME280;3515;50.138;8.502;2022-07-12T03:56:26;102520;;;13.7;85.4
6952;BME280;3515;50.138;8.502;2022-07-12T03:58:52;102480;;;13.7;85.4
6952;BME280;3515;50.138;8.502;2022-07-12T04:01:17;102500;;;13.6;85.4
6952;BME280;3515;50.138;8.502;2022-07-12T04:03:42;102500;;;13.6;85.4
6952;BME280;3515;50.138;8.502;2022-07-12T04:06:07;102490;;;13.6;85.4
6952;BME280;3515;50.138;8.502;2022-07-12T04:08:32;102490;;;13.6;85.4
6952;BME280;3515;50.138;8.502;2022-07-12T04:10:58;102490;;;13.8;85.4
6952;BME280;3515;50.138;8.502;2022-07-12T04:13:23;102500;;;13.8;85.4
6952;BME280;3515;50.138;8.502;2022-07-12T04:15:48;102490;;;13.8;85.4
6952;BME280;3515;50.138;8.502;2022-07-12T04:18:19;102500;;;13.8;85.4
6952;BME280;3515;50.138;8.502;2022-07-12T04:20:44;102500;;;13.8;85.4
6952;BME280;3515;50.138;8.502;2022-07-12T04:23:09;102510;;;13.8;85.4
6952;BME280;3515;50.138;8.502;2022-07-12T04:25:34;102490;;;13.8;85.4
6952;BME280;3515;50.138;8.502;2022-07-12T04:28:00;102490;;;13.9;85.4
6952;BME280;3515;50.138;8.502;2022-07-12T04:30:25;102510;;;14.0;84.9
6952;BME280;3515;50.138;8.502;2022-07-12T04:32:50;102490;;;14.1;84.9
6952;BME280;3515;50.138;8.502;2022-07-12T04:35:16;102500;;;14.1;84.9
6952;BME280;3515;50.138;8.502;2022-07-12T04:37:41;102530;;;14.2;84.9
6952;BME280;3515;50.138;8.502;2022-07-12T04:40:07;102500;;;14.3;84.9
6952;BME280;3515;50.138;8.502;2022-07-12T04:42:31;102530;;;14.3;84.9
6952;BME280;3515;50.138;8.502;2022-07-12T04:44:57;102510;;;14.4;84.9
6952;BME280;3515;50.138;8.502;2022-07-12T04:47:22;102510;;;14.4;84.9
6952;BME280;3515;50.138;8.502;2022-07-12T04:49:47;102500;;;14.5;84.9
6952;BME280;3515;50.138;8.502;2022-07-12T04:52:12;102510;;;14.6;84.4
6952;BME280;3515;50.138;8.502;2022-07-12T04:54:38;102540;;;14.6;83.9
6952;BME280;3515;50.138;8.502;2022-07-12T04:57:03;102520;;;14.8;83.9
6952;BME280;3515;50.138;8.502;2022-07-12T04:59:28;102540;;;14.9;83.4
6952;BME280;3515;50.138;8.502;2022-07-12T05:01:53;102560;;;15.1;83.4
6952;BME280;3515;50.138;8.502;2022-07-12T05:04:19;102540;;;15.2;82.9
6952;BME280;3515;50.138;8.502;2022-07-12T05:06:44;102540;;;15.3;82.5
6952;BME280;3515;50.138;8.502;2022-07-12T05:09:09;102550;;;15.4;82.0
6952;BME280;3515;50.138;8.502;2022-07-12T05:11:34;102550;;;15.5;82.0
6952;BME280;3515;50.138;8.502;2022-07-12T05:14:00;102540;;;15.6;82.0
6952;BME280;3515;50.138;8.502;2022-07-12T05:16:25;102570;;;15.7;81.0
6952;BME280;3515;50.138;8.502;2022-07-12T05:18:50;102550;;;15.8;81.0
6952;BME280;3515;50.138;8.502;2022-07-12T05:21:15;102550;;;16.0;80.5
6952;BME280;3515;50.138;8.502;2022-07-12T05:23:41;102570;;;16.1;80.0
6952;BME280;3515;50.138;8.502;2022-07-12T05:26:06;102540;;;16.1;81.0
6952;BME280;3515;50.138;8.502;2022-07-12T05:28:31;102570;;;16.2;81.0
6952;BME280;3515;50.138;8.502;2022-07-12T05:30:56;102540;;;16.2;81.0
6952;BME280;3515;50.138;8.502;2022-07-12T05:33:22;102570;;;16.4;80.5
6952;BME280;3515;50.138;8.502;2022-07-12T05:35:47;102560;;;16.5;80.5
6952;BME280;3515;50.138;8.502;2022-07-12T05:38:12;102570;;;16.6;80.0
6952;BME280;3515;50.138;8.502;2022-07-12T05:40:37;102560;;;16.7;80.0
6952;BME280;3515;50.138;8.502;2022-07-12T05:43:03;102570;;;17.0;79.5
6952;BME280;3515;50.138;8.502;2022-07-12T05:45:28;102550;;;17.1;79.0
6952;BME280;3515;50.138;8.502;2022-07-12T05:47:53;102570;;;17.3;79.0
6952;BME280;3515;50.138;8.502;2022-07-12T05:50:19;102560;;;17.5;78.5
6952;BME280;3515;50.138;8.502;2022-07-12T05:52:44;102590;;;17.6;78.5
6952;BME280;3515;50.138;8.502;2022-07-12T05:55:09;102570;;;17.8;77.0
6952;BME280;3515;50.138;8.502;2022-07-12T05:57:34;102570;;;18.0;77.0
6952;BME280;3515;50.138;8.502;2022-07-12T06:00:00;102590;;;18.2;77.1
6952;BME280;3515;50.138;8.502;2022-07-12T06:02:25;102570;;;18.4;76.5
6952;BME280;3515;50.138;8.502;2022-07-12T06:04:50;102560;;;18.4;76.5
6952;BME280;3515;50.138;8.502;2022-07-12T06:07:15;102590;;;18.4;76.5
6952;BME280;3515;50.138;8.502;2022-07-12T06:09:41;102590;;;18.5;77.0
6952;BME280;3515;50.138;8.502;2022-07-12T06:12:06;102570;;;18.6;76.5
6952;BME280;3515;50.138;8.502;2022-07-12T06:14:31;102580;;;18.7;76.0
6952;BME280;3515;50.138;8.502;2022-07-12T06:16:56;102590;;;18.9;75.5
6952;BME280;3515;50.138;8.502;2022-07-12T06:19:22;102580;;;19.1;75.5
6952;BME280;3515;50.138;8.502;2022-07-12T06:21:47;102590;;;19.1;76.0
6952;BME280;3515;50.138;8.502;2022-07-12T06:24:12;102590;;;19.1;76.0
6952;BME280;3515;50.138;8.502;2022-07-12T06:26:37;102610;;;19.2;75.0
6952;BME280;3515;50.138;8.502;2022-07-12T06:29:03;102580;;;19.4;75.0
6952;BME280;3515;50.138;8.502;2022-07-12T06:31:28;102570;;;19.4;74.5
6952;BME280;3515;50.138;8.502;2022-07-12T06:33:53;102590;;;19.4;75.5
6952;BME280;3515;50.138;8.502;2022-07-12T06:36:18;102590;;;19.5;75.0
6952;BME280;3515;50.138;8.502;2022-07-12T06:38:44;102590;;;19.6;74.5
6952;BME280;3515;50.138;8.502;2022-07-12T06:41:09;102620;;;19.7;74.5
6952;BME280;3515;50.138;8.502;2022-07-12T06:43:34;102580;;;19.8;73.5
6952;BME280;3515;50.138;8.502;2022-07-12T06:45:59;102600;;;20.1;72.9
6952;BME280;3515;50.138;8.502;2022-07-12T06:48:25;102580;;;20.1;72.5
6952;BME280;3515;50.138;8.502;2022-07-12T06:50:50;102590;;;20.1;72.5
6952;BME280;3515;50.138;8.502;2022-07-12T06:53:15;102600;;;20.2;73.0
6952;BME280;3515;50.138;8.502;2022-07-12T06:55:42;102590;;;20.2;71.5
6952;BME280;3515;50.138;8.502;2022-07-12T06:58:11;102610;;;20.5;71.5
6952;BME280;3515;50.138;8.502;2022-07-12T07:00:36;102590;;;20.4;72.0
6952;BME280;3515;50.138;8.502;2022-07-12T07:03:01;102580;;;20.4;71.5
6952;BME280;3515;50.138;8.502;2022-07-12T07:05:26;102620;;;20.5;72.0
6952;BME280;3515;50.138;8.502;2022-07-12T07:07:52;102580;;;20.6;71.5
6952;BME280;3515;50.138;8.502;2022-07-12T07:10:17;102600;;;20.6;72.0
6952;BME280;3515;50.138;8.502;2022-07-12T07:12:42;102590;;;20.7;71.0
6952;BME280;3515;50.138;8.502;2022-07-12T07:15:08;102620;;;20.8;70.4
6952;BME280;3515;50.138;8.502;2022-07-12T07:17:33;102590;;;20.9;71.0
6952;BME280;3515;50.138;8.502;2022-07-12T07:19:58;102580;;;20.8;71.0
6952;BME280;3515;50.138;8.502;2022-07-12T07:22:23;102600;;;20.9;70.0
6952;BME280;3515;50.138;8.502;2022-07-12T07:24:48;102590;;;21.2;70.0
6952;BME280;3515;50.138;8.502;2022-07-12T07:27:14;102610;;;21.2;69.5
6952;BME280;3515;50.138;8.502;2022-07-12T07:29:39;102590;;;21.2;70.0
6952;BME280;3515;50.138;8.502;2022-07-12T07:32:05;102610;;;21.4;69.0
6952;BME280;3515;50.138;8.502;2022-07-12T07:34:29;102610;;;21.6;68.4
6952;BME280;3515;50.138;8.502;2022-07-12T07:36:55;102640;;;21.7;67.4
6952;BME280;3515;50.138;8.502;2022-07-12T07:39:20;102590;;;21.6;68.5
6952;BME280;3515;50.138;8.502;2022-07-12T07:41:45;102630;;;21.7;68.0
6952;BME280;3515;50.138;8.502;2022-07-12T07:44:10;102610;;;21.9;66.9
6952;BME280;3515;50.138;8.502;2022-07-12T07:46:36;102620;;;21.9;66.4
6952;BME280;3515;50.138;8.502;2022-07-12T07:49:01;102640;;;21.6;68.0
6952;BME280;3515;50.138;8.502;2022-07-12T07:51:26;102600;;;21.4;68.0
6952;BME280;3515;50.138;8.502;2022-07-12T07:53:52;102620;;;21.5;67.5
6952;BME280;3515;50.138;8.502;2022-07-12T07:56:17;102610;;;21.8;67.0
6952;BME280;3515;50.138;8.502;2022-07-12T07:58:42;102620;;;22.0;66.4
6952;BME280;3515;50.138;8.502;2022-07-12T08:01:07;102590;;;22.0;66.5
6952;BME280;3515;50.138;8.502;2022-07-12T08:03:33;102600;;;22.1;65.4
6952;BME280;3515;50.138;8.502;2022-07-12T08:05:58;102600;;;22.2;64.4
6952;BME280;3515;50.138;8.502;2022-07-12T08:08:23;102570;;;22.4;64.4
6952;BME280;3515;50.138;8.502;2022-07-12T08:10:50;102590;;;22.7;63.9
6952;BME280;3515;50.138;8.502;2022-07-12T08:13:15;102580;;;22.9;63.4
6952;BME280;3515;50.138;8.502;2022-07-12T08:15:40;102550;;;22.6;64.0
6952;BME280;3515;50.138;8.502;2022-07-12T08:18:06;102590;;;22.4;65.0
6952;BME280;3515;50.138;8.502;2022-07-12T08:20:31;102580;;;22.4;64.0
6952;BME280;3515;50.138;8.502;2022-07-12T08:22:56;102570;;;22.4;64.5
6952;BME280;3515;50.138;8.502;2022-07-12T08:25:21;102570;;;22.5;64.0
6952;BME280;3515;50.138;8.502;2022-07-12T08:27:47;102590;;;22.7;63.4
6952;BME280;3515;50.138;8.502;2022-07-12T08:30:12;102570;;;22.8;63.4
6952;BME280;3515;50.138;8.502;2022-07-12T08:32:43;102580;;;22.6;64.0
6952;BME280;3515;50.138;8.502;2022-07-12T08:35:03;102600;;;22.7;63.5
6952;BME280;3515;50.138;8.502;2022-07-12T08:37:28;102590;;;22.9;62.4
6952;BME280;3515;50.138;8.502;2022-07-12T08:39:53;102600;;;23.4;61.4
6952;BME280;3515;50.138;8.502;2022-07-12T08:42:18;102610;;;23.4;62.0
6952;BME280;3515;50.138;8.502;2022-07-12T08:44:43;102590;;;23.2;60.9
6952;BME280;3515;50.138;8.502;2022-07-12T08:47:09;102600;;;23.5;60.4
6952;BME280;3515;50.138;8.502;2022-07-12T08:49:34;102600;;;23.9;59.4
6952;BME280;3515;50.138;8.502;2022-07-12T08:51:59;102620;;;24.0;60.4
6952;BME280;3515;50.138;8.502;2022-07-12T08:54:24;102590;;;23.6;60.4
6952;BME280;3515;50.138;8.502;2022-07-12T08:56:50;102610;;;23.8;60.4
6952;BME280;3515;50.138;8.502;2022-07-12T08:59:16;102600;;;23.6;61.0
6952;BME280;3515;50.138;8.502;2022-07-12T09:01:41;102590;;;23.1;62.5
6952;BME280;3515;50.138;8.502;2022-07-12T09:04:09;102620;;;22.8;63.0
6952;BME280;3515;50.138;8.502;2022-07-12T09:06:31;102620;;;22.5;63.5
6952;BME280;3515;50.138;8.502;2022-07-12T09:08:56;102590;;;22.4;64.0
6952;BME280;3515;50.138;8.502;2022-07-12T09:11:21;102610;;;22.4;64.0
6952;BME280;3515;50.138;8.502;2022-07-12T09:13:49;102600;;;22.4;64.0
6952;BME280;3515;50.138;8.502;2022-07-12T09:16:12;102600;;;22.5;63.5
6952;BME280;3515;50.138;8.502;2022-07-12T09:18:37;102590;;;22.5;63.0
6952;BME280;3515;50.138;8.502;2022-07-12T09:21:02;102590;;;22.8;62.0
6952;BME280;3515;50.138;8.502;2022-07-12T09:23:27;102600;;;22.6;62.5
6952;BME280;3515;50.138;8.502;2022-07-12T09:25:53;102610;;;22.8;62.0
6952;BME280;3515;50.138;8.502;2022-07-12T09:28:18;102610;;;22.9;62.0
6952;BME280;3515;50.138;8.502;2022-07-12T09:30:47;102580;;;22.9;62.0
6952;BME280;3515;50.138;8.502;2022-07-12T09:33:08;102580;;;22.9;62.0
6952;BME280;3515;50.138;8.502;2022-07-12T09:35:34;102600;;;22.9;62.0
6952;BME280;3515;50.138;8.502;2022-07-12T09:38:07;102590;;;22.8;61.5
6952;BME280;3515;50.138;8.502;2022-07-12T09:40:24;102580;;;22.8;62.0
6952;BME280;3515;50.138;8.502;2022-07-12T09:42:49;102590;;;22.8;61.5
6952;BME280;3515;50.138;8.502;2022-07-12T09:45:15;102600;;;22.9;60.5
6952;BME280;3515;50.138;8.502;2022-07-12T09:47:40;102590;;;23.2;59.5
6952;BME280;3515;50.138;8.502;2022-07-12T09:50:06;102580;;;23.8;58.4
6952;BME280;3515;50.138;8.502;2022-07-12T09:52:30;102580;;;23.5;60.5
6952;BME280;3515;50.138;8.502;2022-07-12T09:54:56;102570;;;23.4;60.0
6952;BME280;3515;50.138;8.502;2022-07-12T09:57:22;102580;;;23.3;59.0
6952;BME280;3515;50.138;8.502;2022-07-12T09:59:46;102570;;;23.4;59.5
6952;BME280;3515;50.138;8.502;2022-07-12T10:02:11;102570;;;23.4;59.5
6952;BME280;3515;50.138;8.502;2022-07-12T10:04:37;102610;;;23.5;59.0
6952;BME280;3515;50.138;8.502;2022-07-12T10:07:02;102570;;;23.4;58.5
6952;BME280;3515;50.138;8.502;2022-07-12T10:09:27;102590;;;23.7;57.5
6952;BME280;3515;50.138;8.502;2022-07-12T10:11:53;102570;;;24.0;57.0
6952;BME280;3515;50.138;8.502;2022-07-12T10:14:18;102590;;;24.1;56.4
6952;BME280;3515;50.138;8.502;2022-07-12T10:16:43;102570;;;24.4;55.5
6952;BME280;3515;50.138;8.502;2022-07-12T10:21:38;102580;;;24.5;55.4
6952;BME280;3515;50.138;8.502;2022-07-12T10:23:59;102570;;;24.6;56.0
6952;BME280;3515;50.138;8.502;2022-07-12T10:26:26;102600;;;24.5;55.5
6952;BME280;3515;50.138;8.502;2022-07-12T10:29:00;102580;;;24.5;55.5
6952;BME280;3515;50.138;8.502;2022-07-12T10:31:14;102580;;;24.6;54.5
6952;BME280;3515;50.138;8.502;2022-07-12T10:33:40;102590;;;24.6;55.0
6952;BME280;3515;50.138;8.502;2022-07-12T10:36:06;102590;;;24.8;54.0
6952;BME280;3515;50.138;8.502;2022-07-12T10:38:30;102590;;;24.9;54.5
6952;BME280;3515;50.138;8.502;2022-07-12T10:40:55;102600;;;24.9;54.3
6952;BME280;3515;50.138;8.502;2022-07-12T10:43:22;102590;;;24.9;54.0
6952;BME280;3515;50.138;8.502;2022-07-12T10:45:46;102570;;;24.9;53.5
6952;BME280;3515;50.138;8.502;2022-07-12T10:48:19;102580;;;24.9;53.5
6952;BME280;3515;50.138;8.502;2022-07-12T10:55:27;102560;;;24.9;53.5
6952;BME280;3515;50.138;8.502;2022-07-12T10:57:52;102540;;;24.9;53.5
6952;BME280;3515;50.138;8.502;2022-07-12T11:00:18;102570;;;25.0;53.0
6952;BME280;3515;50.138;8.502;2022-07-12T11:02:43;102550;;;25.2;52.5
6952;BME280;3515;50.138;8.502;2022-07-12T11:05:08;102560;;;25.3;52.5
6952;BME280;3515;50.138;8.502;2022-07-12T11:07:33;102560;;;25.5;52.5
6952;BME280;3515;50.138;8.502;2022-07-12T11:09:58;102560;;;25.6;50.9
6952;BME280;3515;50.138;8.502;2022-07-12T11:12:27;102570;;;25.8;50.9
6952;BME280;3515;50.138;8.502;2022-07-12T11:14:50;102540;;;26.1;49.9
6952;BME280;3515;50.138;8.502;2022-07-12T11:17:14;102550;;;26.1;50.9
6952;BME280;3515;50.138;8.502;2022-07-12T11:19:39;102560;;;25.9;50.9
6952;BME280;3515;50.138;8.502;2022-07-12T11:22:04;102560;;;25.6;51.4
6952;BME280;3515;50.138;8.502;2022-07-12T11:24:30;102560;;;25.6;51.5
6952;BME280;3515;50.138;8.502;2022-07-12T11:26:55;102530;;;25.9;51.0
6952;BME280;3515;50.138;8.502;2022-07-12T11:29:22;102550;;;25.9;50.5
6952;BME280;3515;50.138;8.502;2022-07-12T11:31:46;102560;;;25.9;50.4
6952;BME280;3515;50.138;8.502;2022-07-12T11:34:19;102550;;;26.0;49.9
6952;BME280;3515;50.138;8.502;2022-07-12T11:36:36;102540;;;25.6;51.0
6952;BME280;3515;50.138;8.502;2022-07-12T11:39:01;102550;;;25.6;50.5
6952;BME280;3515;50.138;8.502;2022-07-12T11:41:26;102530;;;25.8;50.5
6952;BME280;3515;50.138;8.502;2022-07-12T11:43:52;102530;;;25.9;50.0
6952;BME280;3515;50.138;8.502;2022-07-12T11:46:17;102540;;;25.9;50.5
6952;BME280;3515;50.138;8.502;2022-07-12T11:48:42;102510;;;26.1;50.0
6952;BME280;3515;50.138;8.502;2022-07-12T11:51:08;102520;;;26.4;49.0
6952;BME280;3515;50.138;8.502;2022-07-12T11:53:34;102510;;;26.4;49.0
6952;BME280;3515;50.138;8.502;2022-07-12T11:55:59;102510;;;26.5;48.5
6952;BME280;3515;50.138;8.502;2022-07-12T11:58:24;102510;;;26.6;48.5
6952;BME280;3515;50.138;8.502;2022-07-12T12:00:49;102520;;;26.6;48.0
6952;BME280;3515;50.138;8.502;2022-07-12T12:03:14;102510;;;26.6;47.5
6952;BME280;3515;50.138;8.502;2022-07-12T12:05:39;102530;;;26.7;47.5
6952;BME280;3515;50.138;8.502;2022-07-12T12:08:05;102510;;;26.9;47.5
6952;BME280;3515;50.138;8.502;2022-07-12T12:10:30;102490;;;26.8;47.5
6952;BME280;3515;50.138;8.502;2022-07-12T12:12:55;102520;;;26.9;47.0
6952;BME280;3515;50.138;8.502;2022-07-12T12:15:21;102520;;;26.9;47.0
6952;BME280;3515;50.138;8.502;2022-07-12T12:17:46;102520;;;26.9;46.0
6952;BME280;3515;50.138;8.502;2022-07-12T12:20:12;102500;;;27.2;44.9
6952;BME280;3515;50.138;8.502;2022-07-12T12:22:36;102490;;;27.2;46.0
6952;BME280;3515;50.138;8.502;2022-07-12T12:25:03;102510;;;27.3;46.0
6952;BME280;3515;50.138;8.502;2022-07-12T12:27:27;102500;;;27.4;46.0
6952;BME280;3515;50.138;8.502;2022-07-12T12:29:52;102480;;;27.2;46.0
6952;BME280;3515;50.138;8.502;2022-07-12T12:32:17;102460;;;27.4;44.9
6952;BME280;3515;50.138;8.502;2022-07-12T12:37:08;102490;;;27.5;44.5
6952;BME280;3515;50.138;8.502;2022-07-12T12:39:33;102480;;;27.7;43.9
6952;BME280;3515;50.138;8.502;2022-07-12T12:42:02;102500;;;27.9;42.9
6952;BME280;3515;50.138;8.502;2022-07-12T12:44:28;102470;;;28.1;42.9
6952;BME280;3515;50.138;8.502;2022-07-12T12:46:53;102480;;;28.1;43.9
6952;BME280;3515;50.138;8.502;2022-07-12T12:49:17;102480;;;27.9;42.9
6952;BME280;3515;50.138;8.502;2022-07-12T12:51:51;102470;;;27.9;44.0
6952;BME280;3515;50.138;8.502;2022-07-12T12:54:08;102470;;;27.9;44.0
6952;BME280;3515;50.138;8.502;2022-07-12T12:56:33;102460;;;27.6;43.5
6952;BME280;3515;50.138;8.502;2022-07-12T12:58:58;102440;;;28.0;43.0
6952;BME280;3515;50.138;8.502;2022-07-12T13:01:24;102460;;;28.1;43.0
6952;BME280;3515;50.138;8.502;2022-07-12T13:03:49;102480;;;27.8;43.5
6952;BME280;3515;50.138;8.502;2022-07-12T13:06:14;102470;;;27.8;42.5
6952;BME280;3515;50.138;8.502;2022-07-12T13:08:39;102470;;;27.9;43.5
6952;BME280;3515;50.138;8.502;2022-07-12T13:11:05;102470;;;28.0;42.5
6952;BME280;3515;50.138;8.502;2022-07-12T13:13:30;102480;;;28.2;42.0
6952;BME280;3515;50.138;8.502;2022-07-12T13:15:55;102460;;;28.4;42.0
6952;BME280;3515;50.138;8.502;2022-07-12T13:18:25;102450;;;28.8;41.5
6952;BME280;3515;50.138;8.502;2022-07-12T13:20:50;102450;;;29.0;40.5
6952;BME280;3515;50.138;8.502;2022-07-12T13:23:15;102470;;;29.0;41.0
6952;BME280;3515;50.138;8.502;2022-07-12T13:25:41;102450;;;29.1;40.5
6952;BME280;3515;50.138;8.502;2022-07-12T13:28:06;102460;;;29.2;40.0
6952;BME280;3515;50.138;8.502;2022-07-12T13:30:31;102470;;;29.0;40.5
6952;BME280;3515;50.138;8.502;2022-07-12T13:32:56;102450;;;29.1;40.6
6952;BME280;3515;50.138;8.502;2022-07-12T13:35:22;102460;;;29.2;40.0
6952;BME280;3515;50.138;8.502;2022-07-12T13:37:47;102440;;;29.1;40.0
6952;BME280;3515;50.138;8.502;2022-07-12T13:40:12;102450;;;29.2;40.0
6952;BME280;3515;50.138;8.502;2022-07-12T13:42:42;102460;;;29.2;40.5
6952;BME280;3515;50.138;8.502;2022-07-12T13:45:07;102460;;;29.2;39.6
6952;BME280;3515;50.138;8.502;2022-07-12T13:47:32;102430;;;29.6;39.0
6952;BME280;3515;50.138;8.502;2022-07-12T13:49:57;102420;;;29.6;39.5
6952;BME280;3515;50.138;8.502;2022-07-12T13:52:22;102420;;;29.8;38.5
6952;BME280;3515;50.138;8.502;2022-07-12T13:54:48;102450;;;29.4;38.5
6952;BME280;3515;50.138;8.502;2022-07-12T13:57:13;102440;;;29.5;38.5
6952;BME280;3515;50.138;8.502;2022-07-12T13:59:38;102420;;;29.6;38.0
6952;BME280;3515;50.138;8.502;2022-07-12T14:02:04;102460;;;29.6;38.5
6952;BME280;3515;50.138;8.502;2022-07-12T14:04:29;102450;;;29.6;38.0
6952;BME280;3515;50.138;8.502;2022-07-12T14:06:54;102440;;;29.4;37.5